Time;durP1;ratioP1;P1;durP2;ratioP2;P2;SDS_P1;SDS_P2;PMS_P1;PMS_P2;Temp;Humidity;BMP_temperature;BMP_pressure;BME280_temperature;BME280_humidity;BME280_pressure;Samples;Min_cycle;Max_cycle;Signal;HPM_P1;HPM_P2
2022/07/16 00:01:26;;;;;;;4.40;3.17;;;;;;;27.02;96.42;99447.69;6274326;22;20424;-86
2022/07/16 00:04:10;;;;;;;3.97;3.58;;;;;;;26.95;96.61;99448.94;6274648;22;20057;-86
2022/07/16 00:06:36;;;;;;;3.88;3.50;;;;;;;26.95;96.99;99444.34;6274660;22;20384;-85
2022/07/16 00:09:03;;;;;;;3.83;3.53;;;;;;;26.93;96.68;99451.91;6274225;22;20011;-84
2022/07/16 00:11:28;;;;;;;5.28;3.88;;;;;;;26.87;97.54;99455.59;6248129;22;20053;-84
2022/07/16 00:13:54;;;;;;;5.55;3.58;;;;;;;26.74;98.37;99456.75;6277194;22;20011;-84
2022/07/16 00:16:20;;;;;;;4.07;3.50;;;;;;;26.77;98.63;99458.16;6277000;22;20016;-84
2022/07/16 00:21:30;;;;;;;3.72;3.40;;;;;;;26.79;98.16;99466.88;6279295;22;20015;-85
2022/07/16 00:23:55;;;;;;;3.40;3.20;;;;;;;26.79;98.28;99461.44;6277290;22;20034;-83
2022/07/16 00:26:21;;;;;;;3.92;3.63;;;;;;;26.77;98.43;99463.56;6278421;22;20072;-83
2022/07/16 00:28:47;;;;;;;4.05;3.55;;;;;;;26.74;98.65;99464.09;6281911;22;20081;-84
2022/07/16 00:31:13;;;;;;;5.03;3.30;;;;;;;26.69;99.08;99467.53;6283046;22;20421;-81
2022/07/16 00:33:39;;;;;;;3.78;3.47;;;;;;;26.71;99.12;99464.56;6279867;22;20011;-81
2022/07/16 00:36:05;;;;;;;4.25;3.70;;;;;;;26.60;99.49;99465.50;6281051;22;20004;-81
2022/07/16 00:38:32;;;;;;;3.92;3.60;;;;;;;26.60;99.33;99460.09;6284333;22;20400;-81
2022/07/16 00:40:57;;;;;;;5.75;3.97;;;;;;;26.56;99.45;99461.66;6285006;22;20015;-80
2022/07/16 00:43:23;;;;;;;3.47;3.22;;;;;;;26.47;100.00;99470.19;6277829;22;20086;-80
2022/07/16 00:45:49;;;;;;;4.40;3.60;;;;;;;26.41;100.00;99465.78;6251947;22;20015;-80
2022/07/16 00:48:14;;;;;;;6.35;3.72;;;;;;;26.42;100.00;99472.84;6250873;22;20016;-80
2022/07/16 00:50:41;;;;;;;6.25;3.60;;;;;;;26.48;100.00;99466.44;6279161;22;20012;-82
2022/07/16 00:53:11;;;;;;;3.90;3.58;;;;;;;26.42;100.00;99472.84;6277916;22;20398;-80
2022/07/16 00:55:38;;;;;;;3.78;3.45;;;;;;;26.42;100.00;99480.94;6291391;22;20031;-80
2022/07/16 00:58:04;;;;;;;5.85;3.75;;;;;;;26.30;100.00;99480.22;6288068;22;20011;-79
2022/07/16 01:00:30;;;;;;;3.83;3.30;;;;;;;26.24;100.00;99480.38;6297538;22;20004;-79
2022/07/16 01:02:57;;;;;;;4.10;3.70;;;;;;;26.15;100.00;99482.66;6286081;22;20039;-79
2022/07/16 01:05:23;;;;;;;4.82;3.70;;;;;;;26.11;100.00;99481.50;6250225;22;20079;-80
2022/07/16 01:07:51;;;;;;;4.10;3.70;;;;;;;26.03;100.00;99480.03;6249770;22;20403;-80
2022/07/16 01:10:18;;;;;;;4.32;3.45;;;;;;;26.07;100.00;99483.06;6277095;22;20012;-81
2022/07/16 01:12:45;;;;;;;6.60;3.80;;;;;;;26.06;100.00;99478.69;6251927;22;20050;-80
2022/07/16 01:15:12;;;;;;;3.95;3.65;;;;;;;26.07;100.00;99480.34;6278591;22;20019;-80
2022/07/16 01:17:37;;;;;;;4.38;3.47;;;;;;;26.07;100.00;99478.47;6279997;22;20007;-81
2022/07/16 01:20:05;;;;;;;3.80;3.50;;;;;;;26.04;100.00;99483.53;6284156;22;20011;-82
2022/07/16 01:22:31;;;;;;;4.65;3.80;;;;;;;26.05;100.00;99494.09;6279339;22;20109;-82
2022/07/16 01:24:57;;;;;;;4.20;3.90;;;;;;;26.04;100.00;99488.94;6276214;22;20007;-82
2022/07/16 01:27:22;;;;;;;4.45;3.78;;;;;;;26.02;100.00;99493.78;6276360;22;20019;-83
2022/07/16 01:29:48;;;;;;;3.90;3.60;;;;;;;25.95;100.00;99491.25;6276745;22;20043;-82
2022/07/16 01:32:14;;;;;;;4.90;4.38;;;;;;;25.90;100.00;99493.84;6248433;22;20008;-83
2022/07/16 01:34:39;;;;;;;3.63;3.42;;;;;;;25.80;100.00;99495.56;6275949;22;20344;-83
2022/07/16 01:37:08;;;;;;;4.25;3.80;;;;;;;25.68;100.00;99498.31;6280186;22;20079;-83
2022/07/16 01:39:37;;;;;;;4.55;3.83;;;;;;;25.71;100.00;99497.00;6279135;22;20036;-82
2022/07/16 01:42:06;;;;;;;4.55;4.15;;;;;;;25.74;100.00;99501.94;6258894;22;20057;-81
2022/07/16 01:44:34;;;;;;;4.35;4.05;;;;;;;25.76;100.00;99499.78;6281413;22;20016;-85
2022/07/16 01:47:02;;;;;;;3.80;3.50;;;;;;;25.77;100.00;99506.84;6255412;22;20359;-84
2022/07/16 01:49:36;;;;;;;3.92;3.55;;;;;;;25.69;100.00;99506.16;6276696;22;20099;-85
2022/07/16 01:52:18;;;;;;;4.20;3.90;;;;;;;25.72;100.00;99507.56;6276340;22;20019;-84
2022/07/16 01:54:50;;;;;;;4.60;3.65;;;;;;;25.73;100.00;99511.09;6295310;22;20063;-82
2022/07/16 01:57:16;;;;;;;4.00;3.55;;;;;;;25.72;100.00;99514.88;6275380;22;20031;-83
2022/07/16 01:59:43;;;;;;;4.03;3.60;;;;;;;25.73;100.00;99516.50;6275904;22;20016;-84
2022/07/16 02:02:10;;;;;;;5.30;3.90;;;;;;;25.72;100.00;99514.88;6248434;22;20093;-82
2022/07/16 02:04:37;;;;;;;4.30;3.85;;;;;;;25.68;100.00;99520.72;6276525;22;20460;-82
2022/07/16 02:07:03;;;;;;;4.70;4.20;;;;;;;25.64;100.00;99518.75;6276461;22;20004;-84
2022/07/16 02:09:29;;;;;;;4.05;3.75;;;;;;;25.53;100.00;99523.13;6276670;22;20019;-82
2022/07/16 02:11:54;;;;;;;3.88;3.58;;;;;;;25.55;100.00;99515.63;6275628;22;20003;-84
2022/07/16 02:14:20;;;;;;;3.85;3.55;;;;;;;25.54;100.00;99519.38;6273935;22;20011;-82
2022/07/16 02:16:46;;;;;;;4.35;3.97;;;;;;;25.48;100.00;99525.72;6275410;22;20061;-82
2022/07/16 02:19:11;;;;;;;4.03;3.58;;;;;;;25.51;100.00;99522.53;6273878;22;20007;-82
2022/07/16 02:21:37;;;;;;;3.80;3.50;;;;;;;25.49;100.00;99524.69;6274545;22;20011;-82
2022/07/16 02:24:03;;;;;;;3.95;3.65;;;;;;;25.41;100.00;99525.03;6274128;22;20008;-82
2022/07/16 02:26:29;;;;;;;5.00;3.47;;;;;;;25.44;100.00;99524.59;6274189;22;20007;-82
2022/07/16 02:28:54;;;;;;;3.85;3.55;;;;;;;25.44;100.00;99524.59;6247183;22;20008;-81
2022/07/16 02:31:20;;;;;;;5.00;3.50;;;;;;;25.38;100.00;99528.25;6246745;22;20011;-81
2022/07/16 02:33:46;;;;;;;3.80;3.50;;;;;;;25.39;100.00;99527.16;6273155;22;20016;-83
2022/07/16 02:36:13;;;;;;;3.70;3.40;;;;;;;25.38;100.00;99520.13;6273174;22;20210;-82
2022/07/16 02:38:39;;;;;;;3.92;3.53;;;;;;;25.36;100.00;99533.06;6273410;22;20372;-81
2022/07/16 02:41:05;;;;;;;4.15;3.78;;;;;;;25.32;100.00;99526.50;6273925;22;20093;-84
2022/07/16 02:43:30;;;;;;;3.50;3.15;;;;;;;25.31;100.00;99529.44;6273972;22;20007;-84
2022/07/16 02:45:56;;;;;;;4.43;4.03;;;;;;;25.33;100.00;99535.41;6246812;22;20041;-84
2022/07/16 02:48:22;;;;;;;5.35;3.67;;;;;;;25.33;100.00;99535.41;6220467;22;20007;-83
2022/07/16 02:50:48;;;;;;;4.57;4.10;;;;;;;25.33;100.00;99536.22;6246334;22;20008;-83
2022/07/16 02:53:13;;;;;;;3.75;3.45;;;;;;;25.32;100.00;99542.69;6245943;22;20094;-83
2022/07/16 02:55:39;;;;;;;4.07;3.78;;;;;;;25.30;100.00;99550.22;6273489;22;20011;-83
2022/07/16 02:58:04;;;;;;;4.28;3.97;;;;;;;25.32;100.00;99540.00;6273951;22;20003;-82
2022/07/16 03:00:31;;;;;;;6.18;4.07;;;;;;;25.27;100.00;99554.19;6274280;22;20012;-83
2022/07/16 03:02:57;;;;;;;3.92;3.60;;;;;;;25.23;100.00;99554.91;6274761;22;20015;-83
2022/07/16 03:05:23;;;;;;;4.10;3.80;;;;;;;25.19;100.00;99553.75;6274263;22;20027;-83
2022/07/16 03:07:49;;;;;;;4.25;3.85;;;;;;;25.23;100.00;99554.91;6254229;22;20007;-84
2022/07/16 03:10:15;;;;;;;3.88;3.58;;;;;;;25.21;100.00;99559.75;6254681;22;20012;-83
2022/07/16 03:12:41;;;;;;;4.82;4.43;;;;;;;25.18;100.00;99552.09;6275594;22;20035;-84
2022/07/16 03:15:10;;;;;;;4.10;3.78;;;;;;;25.15;100.00;99563.41;6274469;22;20043;-84
2022/07/16 03:17:35;;;;;;;4.65;3.83;;;;;;;25.10;100.00;99560.56;6274055;22;20067;-81
2022/07/16 03:20:01;;;;;;;4.22;3.95;;;;;;;25.07;100.00;99563.75;6273418;22;20031;-82
2022/07/16 03:22:27;;;;;;;4.10;3.83;;;;;;;25.05;100.00;99563.16;6246418;22;20031;-82
2022/07/16 03:24:53;;;;;;;4.20;3.90;;;;;;;25.03;100.00;99562.59;6246544;22;20007;-81
2022/07/16 03:27:18;;;;;;;4.20;3.80;;;;;;;24.97;100.00;99566.22;6273332;22;20008;-83
2022/07/16 03:29:44;;;;;;;4.38;3.97;;;;;;;24.93;100.00;99562.34;6246224;22;20078;-82
2022/07/16 03:32:10;;;;;;;4.95;4.45;;;;;;;24.87;100.00;99562.19;6273754;22;20004;-81
2022/07/16 03:34:35;;;;;;;4.43;3.67;;;;;;;24.83;100.00;99560.22;6273310;22;20007;-79
2022/07/16 03:37:01;;;;;;;4.47;4.18;;;;;;;24.81;100.00;99563.13;6273262;22;20022;-82
2022/07/16 03:39:27;;;;;;;4.28;3.88;;;;;;;24.74;100.00;99564.34;6273407;22;20018;-83
2022/07/16 03:41:53;;;;;;;4.90;4.50;;;;;;;24.72;100.00;99569.94;6273852;22;20012;-80
2022/07/16 03:44:18;;;;;;;5.50;3.97;;;;;;;24.60;100.00;99566.44;6273264;22;20012;-79
2022/07/16 03:46:44;;;;;;;4.72;4.00;;;;;;;24.67;100.00;99572.53;6273433;22;20012;-79
2022/07/16 03:49:10;;;;;;;5.22;4.32;;;;;;;24.72;100.00;99580.75;6272889;22;20046;-81
2022/07/16 03:51:36;;;;;;;4.65;4.20;;;;;;;24.73;100.00;99581.56;6274196;22;20071;-80
2022/07/16 03:54:03;;;;;;;4.10;3.80;;;;;;;24.71;100.00;99584.50;6273280;22;20039;-80
2022/07/16 03:56:29;;;;;;;4.65;4.00;;;;;;;24.73;100.00;99579.69;6246635;22;20018;-82
2022/07/16 03:58:55;;;;;;;4.38;3.97;;;;;;;24.75;100.00;99580.25;6273729;22;20031;-80
2022/07/16 04:01:21;;;;;;;4.32;4.03;;;;;;;24.71;100.00;99584.50;6274174;22;20016;-80
2022/07/16 04:03:46;;;;;;;4.57;4.25;;;;;;;24.72;100.00;99586.16;6273684;22;20015;-81
2022/07/16 04:06:12;;;;;;;5.05;4.13;;;;;;;24.73;100.00;99589.66;6273461;22;20031;-80
2022/07/16 04:08:37;;;;;;;4.82;4.40;;;;;;;24.73;100.00;99587.78;6273880;22;20004;-80
2022/07/16 04:11:03;;;;;;;6.60;4.55;;;;;;;24.71;100.00;99589.91;6274042;22;19996;-81
2022/07/16 04:13:29;;;;;;;5.97;4.20;;;;;;;24.65;100.00;99596.22;6277587;22;20075;-79
2022/07/16 04:15:55;;;;;;;4.65;4.25;;;;;;;24.69;100.00;99608.19;6283917;22;20008;-80
2022/07/16 04:18:20;;;;;;;4.45;4.05;;;;;;;24.70;100.00;99609.00;6289121;22;20011;-80
2022/07/16 04:20:47;;;;;;;6.25;4.50;;;;;;;24.68;100.00;99614.63;6275015;22;20023;-79
2022/07/16 04:23:13;;;;;;;4.80;4.50;;;;;;;24.65;100.00;99616.97;6273890;22;20455;-80
2022/07/16 04:25:39;;;;;;;4.35;4.05;;;;;;;24.62;100.00;99618.28;6275183;22;20003;-80
2022/07/16 04:28:04;;;;;;;4.72;4.30;;;;;;;24.54;100.00;99615.09;6275034;22;20039;-81
2022/07/16 04:30:30;;;;;;;5.88;4.32;;;;;;;24.54;100.00;99615.91;6247946;22;20016;-80
2022/07/16 04:32:56;;;;;;;4.40;4.00;;;;;;;24.50;100.00;99620.13;6275162;22;20035;-82
2022/07/16 04:35:21;;;;;;;4.30;3.90;;;;;;;24.49;100.00;99615.78;6274870;22;20004;-82
2022/07/16 04:37:47;;;;;;;4.53;4.13;;;;;;;24.48;100.00;99620.34;6275280;22;20011;-82
2022/07/16 04:40:13;;;;;;;4.18;3.95;;;;;;;24.46;100.00;99632.41;6247332;22;20012;-83
2022/07/16 04:42:41;;;;;;;4.68;4.22;;;;;;;24.44;100.00;99626.47;6248068;22;20588;-85
2022/07/16 04:45:08;;;;;;;4.88;4.47;;;;;;;24.41;100.00;99629.59;6247874;22;20007;-85
2022/07/16 04:47:34;;;;;;;4.53;4.15;;;;;;;24.43;100.00;99624.81;6275400;22;20011;-82
2022/07/16 04:49:59;;;;;;;4.40;4.00;;;;;;;24.40;100.00;99627.94;6275721;22;20010;-82
2022/07/16 04:52:25;;;;;;;4.60;4.20;;;;;;;24.35;100.00;99627.81;6279262;22;20062;-80
2022/07/16 04:54:51;;;;;;;5.18;4.72;;;;;;;24.39;100.00;99635.22;6278588;22;20101;-83
2022/07/16 04:57:17;;;;;;;4.88;4.03;;;;;;;24.46;100.00;99637.81;6276954;22;20011;-82
2022/07/16 04:59:42;;;;;;;4.35;4.05;;;;;;;24.50;100.00;99639.03;6275303;22;20008;-83
2022/07/16 05:04:52;;;;;;;4.30;4.00;;;;;;;24.56;100.00;99661.56;6277236;22;20022;-82
2022/07/16 05:07:18;;;;;;;4.53;4.13;;;;;;;24.63;100.00;99656.84;6277171;22;20012;-83
2022/07/16 05:09:43;;;;;;;4.82;4.32;;;;;;;24.60;100.00;99666.25;6293604;22;20012;-87
2022/07/16 05:12:09;;;;;;;4.55;4.15;;;;;;;24.64;100.00;99662.03;6277423;22;20086;-84
2022/07/16 05:14:34;;;;;;;4.07;3.78;;;;;;;24.67;100.00;99664.28;6290526;22;19999;-85
2022/07/16 05:17:00;;;;;;;4.25;3.95;;;;;;;24.76;100.00;99670.97;6276575;22;20026;-84
2022/07/16 05:19:26;;;;;;;4.53;4.05;;;;;;;24.86;100.00;99678.47;6250437;22;20062;-85
2022/07/16 05:21:51;;;;;;;4.45;4.15;;;;;;;24.86;100.00;99673.91;6259177;22;20062;-81
2022/07/16 05:24:17;;;;;;;4.40;4.07;;;;;;;24.90;100.00;99678.91;6297630;22;20023;-82
2022/07/16 05:26:43;;;;;;;4.70;4.05;;;;;;;24.95;100.00;99679.84;6288682;22;20015;-84
2022/07/16 05:29:08;;;;;;;4.35;3.95;;;;;;;25.01;100.00;99681.59;6276859;22;20038;-84
2022/07/16 05:31:34;;;;;;;4.40;4.00;;;;;;;25.02;100.00;99683.25;6276900;22;20018;-86
2022/07/16 05:34:00;;;;;;;4.90;4.40;;;;;;;25.05;100.00;99690.06;6248638;22;20451;-84
2022/07/16 05:36:25;;;;;;;4.90;4.45;;;;;;;25.08;100.00;99686.91;6247627;22;20015;-81
2022/07/16 05:38:51;;;;;;;4.30;3.92;;;;;;;25.10;100.00;99688.28;6276871;22;20007;-82
2022/07/16 05:41:17;;;;;;;4.63;4.22;;;;;;;25.15;100.00;99684.91;6278961;22;20008;-86
2022/07/16 05:43:42;;;;;;;4.97;4.32;;;;;;;25.21;100.00;99687.47;6279561;22;20011;-84
2022/07/16 05:46:08;;;;;;;4.47;4.10;;;;;;;25.24;100.00;99691.59;6279623;22;20023;-80
2022/07/16 05:48:34;;;;;;;4.35;3.95;;;;;;;25.24;100.00;99692.41;6278847;22;20016;-82
2022/07/16 05:50:59;;;;;;;5.57;4.07;;;;;;;25.26;100.00;99700.28;6279225;22;20012;-80
2022/07/16 05:53:25;;;;;;;4.82;4.43;;;;;;;25.26;100.00;99694.91;6276392;22;20019;-85
2022/07/16 05:55:51;;;;;;;4.95;4.00;;;;;;;25.33;100.00;99695.56;6279458;22;20012;-83
2022/07/16 05:58:16;;;;;;;6.05;4.22;;;;;;;25.44;100.00;99697.47;6282208;22;19999;-82
2022/07/16 06:00:42;;;;;;;4.95;4.50;;;;;;;25.40;100.00;99695.47;6286271;22;20018;-85
2022/07/16 06:03:08;;;;;;;4.88;4.32;;;;;;;25.47;100.00;99696.16;6290112;22;20012;-85
2022/07/16 06:05:34;;;;;;;4.18;3.80;;;;;;;25.55;100.00;99699.34;6287989;22;20011;-83
2022/07/16 06:08:00;;;;;;;6.72;4.40;;;;;;;25.63;100.00;99695.47;6254135;22;20340;-79
2022/07/16 06:10:26;;;;;;;4.53;4.13;;;;;;;25.67;100.00;99702.91;6281671;22;20015;-82
2022/07/16 06:12:52;;;;;;;4.70;4.40;;;;;;;25.73;100.00;99703.00;6251567;22;20008;-83
2022/07/16 06:15:17;;;;;;;7.45;4.32;;;;;;;25.84;100.00;99707.56;6278741;22;19995;-85
2022/07/16 06:17:43;;;;;;;4.93;4.03;;;;;;;25.98;100.00;99714.31;6279914;22;20053;-82
2022/07/16 06:20:09;;;;;;;6.55;3.92;;;;;;;26.00;100.00;99712.22;6277191;22;20040;-80
2022/07/16 06:22:35;;;;;;;4.45;3.90;;;;;;;25.96;100.00;99705.66;6278329;22;20034;-81
2022/07/16 06:25:01;;;;;;;4.70;4.40;;;;;;;26.00;100.00;99704.94;6249284;22;20008;-82
2022/07/16 06:27:27;;;;;;;4.35;3.97;;;;;;;26.07;100.00;99712.91;6278135;22;20007;-80
2022/07/16 06:29:52;;;;;;;4.00;3.78;;;;;;;26.09;100.00;99716.22;6277663;22;20110;-81
2022/07/16 06:32:18;;;;;;;4.38;4.00;;;;;;;26.03;100.00;99719.88;6277494;22;20059;-81
2022/07/16 06:34:44;;;;;;;4.30;3.90;;;;;;;26.00;100.00;99712.22;6251548;22;20022;-82
2022/07/16 06:37:09;;;;;;;4.88;3.72;;;;;;;26.03;100.00;99717.16;6251357;22;20008;-82
2022/07/16 06:39:35;;;;;;;4.13;3.83;;;;;;;26.08;100.00;99725.38;6278753;22;20015;-82
2022/07/16 06:42:01;;;;;;;4.90;4.50;;;;;;;26.12;100.00;99715.72;6278846;22;20070;-81
2022/07/16 06:44:32;;;;;;;4.28;3.75;;;;;;;26.16;100.00;99719.56;6278786;22;20016;-84
2022/07/16 06:46:58;;;;;;;4.35;4.00;;;;;;;26.23;100.00;99732.97;6249789;22;20007;-83
2022/07/16 06:49:24;;;;;;;3.88;3.40;;;;;;;26.25;100.00;99731.69;6278098;22;20000;-83
2022/07/16 06:51:49;;;;;;;3.88;3.55;;;;;;;26.30;100.00;99726.38;6278436;22;20063;-85
2022/07/16 06:54:15;;;;;;;4.70;3.63;;;;;;;26.26;100.00;99730.66;6277777;22;20007;-82
2022/07/16 06:56:40;;;;;;;4.43;3.90;;;;;;;26.29;100.00;99732.84;6277512;22;20042;-82
2022/07/16 06:59:06;;;;;;;4.40;3.83;;;;;;;26.34;100.00;99741.06;6276806;22;20127;-80
2022/07/16 07:01:32;;;;;;;4.03;3.55;;;;;;;26.42;100.00;99727.16;6277372;22;20019;-80
2022/07/16 07:03:58;;;;;;;4.43;3.55;;;;;;;26.52;100.00;99740.06;6277136;22;20019;-84
2022/07/16 07:06:23;;;;;;;6.20;4.00;;;;;;;26.62;100.00;99731.31;6277730;22;20007;-81
2022/07/16 07:08:49;;;;;;;5.30;3.85;;;;;;;26.68;100.00;99736.59;6250939;22;20015;-85
2022/07/16 07:11:14;;;;;;;6.45;3.53;;;;;;;26.77;98.60;99739.72;6276217;22;20444;-83
2022/07/16 07:13:40;;;;;;;3.88;3.58;;;;;;;26.86;97.77;99740.97;6276918;22;20066;-80
2022/07/16 07:16:06;;;;;;;4.05;3.40;;;;;;;26.92;96.82;99744.63;6276835;22;20018;-82
2022/07/16 07:18:33;;;;;;;4.57;3.10;;;;;;;26.95;94.42;99747.66;6277870;22;20087;-84
2022/07/16 07:21:02;;;;;;;3.95;3.53;;;;;;;27.06;94.24;99745.94;6277035;22;20490;-82
2022/07/16 07:23:28;;;;;;;4.10;3.70;;;;;;;27.22;92.17;99737.78;6249684;22;20015;-83
2022/07/16 07:25:54;;;;;;;4.95;3.47;;;;;;;27.40;90.55;99749.44;6277844;22;20336;-84
2022/07/16 07:28:19;;;;;;;4.75;3.60;;;;;;;27.52;89.78;99747.50;6275029;22;20008;-84
2022/07/16 07:30:45;;;;;;;5.25;3.50;;;;;;;27.59;83.85;99742.72;6248327;22;20015;-83
2022/07/16 07:33:11;;;;;;;4.22;3.65;;;;;;;27.63;84.25;99741.16;6273429;22;20008;-78
2022/07/16 07:35:36;;;;;;;3.97;3.17;;;;;;;27.71;80.91;99743.44;6274957;22;20039;-81
2022/07/16 07:38:03;;;;;;;4.40;3.45;;;;;;;27.78;80.05;99745.97;6274685;22;20008;-82
2022/07/16 07:40:29;;;;;;;6.05;3.53;;;;;;;27.82;79.96;99741.69;6246444;22;20004;-82
2022/07/16 07:42:54;;;;;;;4.30;3.50;;;;;;;27.85;80.39;99738.50;6274300;22;20343;-79
2022/07/16 07:45:21;;;;;;;3.63;3.30;;;;;;;27.95;78.66;99739.44;6274062;22;20036;-82
2022/07/16 07:47:46;;;;;;;3.85;3.05;;;;;;;27.97;78.55;99734.59;6273223;22;20027;-79
2022/07/16 07:50:13;;;;;;;4.80;3.25;;;;;;;28.00;77.50;99733.25;6270827;22;20007;-79
2022/07/16 07:52:40;;;;;;;3.70;3.10;;;;;;;27.99;76.41;99731.59;6273944;22;20062;-78
2022/07/16 07:55:06;;;;;;;3.35;3.15;;;;;;;27.99;76.73;99732.44;6272994;22;20015;-78
2022/07/16 07:57:32;;;;;;;3.58;3.28;;;;;;;27.96;76.77;99730.25;6275135;22;20004;-80
2022/07/16 07:59:58;;;;;;;4.53;3.70;;;;;;;27.97;77.47;99739.19;6277247;22;20039;-80
2022/07/16 08:02:24;;;;;;;4.22;3.60;;;;;;;27.99;77.97;99731.59;6250052;22;20016;-80
2022/07/16 08:04:49;;;;;;;3.50;3.20;;;;;;;27.98;78.06;99736.22;6249763;22;20055;-80
2022/07/16 08:07:15;;;;;;;3.88;2.80;;;;;;;27.97;76.61;99740.03;6275892;22;20003;-80
2022/07/16 08:09:40;;;;;;;2.83;2.63;;;;;;;27.97;75.48;99740.03;6277904;22;20336;-80
2022/07/16 08:12:06;;;;;;;2.97;2.72;;;;;;;27.98;73.20;99736.22;6276460;22;20012;-80
2022/07/16 08:14:32;;;;;;;4.35;2.47;;;;;;;28.01;69.96;99741.16;6276308;22;20015;-80
2022/07/16 08:16:58;;;;;;;4.18;2.63;;;;;;;28.05;69.91;99739.56;6276799;22;20004;-80
2022/07/16 08:19:24;;;;;;;2.78;2.58;;;;;;;28.13;69.50;99742.91;6248616;22;20035;-81
2022/07/16 08:21:50;;;;;;;3.17;2.88;;;;;;;28.15;68.99;99741.63;6275399;22;20383;-81
2022/07/16 08:27:00;;;;;;;2.80;2.60;;;;;;;28.25;66.99;99738.22;6276711;22;20412;-81
2022/07/16 08:29:25;;;;;;;3.40;2.33;;;;;;;28.24;67.28;99734.69;6276154;22;20008;-80
2022/07/16 08:31:51;;;;;;;2.97;2.65;;;;;;;28.24;68.55;99739.28;6276675;22;20008;-81
2022/07/16 08:34:16;;;;;;;3.00;2.80;;;;;;;28.29;69.07;99736.63;6276767;22;20039;-79
2022/07/16 08:36:42;;;;;;;7.88;3.13;;;;;;;28.33;69.30;99732.34;6278381;22;20007;-80
2022/07/16 08:39:08;;;;;;;3.95;3.13;;;;;;;28.35;69.29;99735.59;6276343;22;20012;-80
2022/07/16 08:41:35;;;;;;;4.93;3.00;;;;;;;28.38;69.36;99729.69;6277220;22;20057;-81
2022/07/16 08:44:01;;;;;;;3.28;2.97;;;;;;;28.43;68.53;99738.69;6277045;22;20014;-79
2022/07/16 08:46:28;;;;;;;3.58;3.03;;;;;;;28.44;68.63;99728.66;6276267;22;20008;-80
2022/07/16 08:48:54;;;;;;;3.13;2.83;;;;;;;28.47;69.08;99722.72;6276135;22;20023;-80
2022/07/16 08:51:31;;;;;;;5.10;2.53;;;;;;;28.52;68.85;99720.88;6274576;22;20016;-80
2022/07/16 08:54:05;;;;;;;5.53;3.47;;;;;;;28.60;68.84;99722.31;6274527;22;20023;-80
2022/07/16 08:56:32;;;;;;;3.67;3.10;;;;;;;28.67;68.45;99722.13;6247129;22;20096;-80
2022/07/16 08:58:59;;;;;;;3.33;3.05;;;;;;;28.70;67.95;99722.41;6274498;22;20086;-81
2022/07/16 09:01:29;;;;;;;3.05;2.83;;;;;;;28.69;67.71;99720.75;6274191;22;20066;-80
2022/07/16 09:03:57;;;;;;;3.70;3.08;;;;;;;28.73;68.21;99719.22;6274445;22;20042;-80
2022/07/16 09:06:22;;;;;;;4.65;3.60;;;;;;;28.76;67.47;99721.41;6273523;22;20007;-80
2022/07/16 09:08:48;;;;;;;4.07;3.28;;;;;;;28.76;68.22;99721.41;6274032;22;20011;-80
2022/07/16 09:11:22;;;;;;;4.18;3.78;;;;;;;28.75;68.02;99718.94;6273586;22;20057;-81
2022/07/16 09:14:01;;;;;;;5.22;3.70;;;;;;;28.67;68.36;99716.69;6274325;22;20011;-81
2022/07/16 09:16:36;;;;;;;4.20;3.20;;;;;;;28.67;68.68;99717.50;6274066;22;20012;-80
2022/07/16 09:19:12;;;;;;;8.45;3.17;;;;;;;28.69;69.20;99715.34;6274011;22;20099;-80
2022/07/16 09:21:57;;;;;;;4.85;3.50;;;;;;;28.75;68.85;99719.75;6246319;22;20090;-80
2022/07/16 09:24:33;;;;;;;5.35;3.63;;;;;;;28.77;69.38;99720.34;6273805;22;20019;-81
2022/07/16 09:27:01;;;;;;;5.78;3.10;;;;;;;28.83;69.18;99715.78;6273738;22;20011;-81
2022/07/16 09:29:26;;;;;;;3.88;3.58;;;;;;;28.86;69.22;99709.84;6273545;22;20182;-81
2022/07/16 09:31:54;;;;;;;3.67;3.45;;;;;;;28.90;68.08;99709.06;6274191;22;20039;-80
2022/07/16 09:34:20;;;;;;;3.90;3.70;;;;;;;28.90;67.89;99705.53;6273394;22;20107;-79
2022/07/16 09:37:06;;;;;;;4.40;3.25;;;;;;;28.95;68.53;99713.72;6273734;22;20043;-81
2022/07/16 09:39:34;;;;;;;3.90;3.33;;;;;;;28.98;69.01;99707.78;6273792;22;20007;-81
2022/07/16 09:42:00;;;;;;;3.38;3.17;;;;;;;29.04;68.65;99705.91;6273672;22;20027;-81
2022/07/16 09:44:31;;;;;;;4.65;4.25;;;;;;;29.09;68.98;99697.78;6273975;22;20003;-81
2022/07/16 09:47:03;;;;;;;4.80;4.40;;;;;;;29.16;69.22;99710.06;6274035;22;20007;-80
2022/07/16 09:49:30;;;;;;;4.53;4.00;;;;;;;29.15;69.60;99702.19;6273703;22;20045;-81
2022/07/16 09:51:55;;;;;;;5.68;4.30;;;;;;;29.17;69.05;99700.84;6273883;22;20137;-81
2022/07/16 09:54:32;;;;;;;5.10;4.60;;;;;;;29.17;68.42;99700.00;6272904;22;20051;-80
2022/07/16 09:57:11;;;;;;;4.32;3.97;;;;;;;29.18;68.39;99698.94;6273380;22;20077;-81
2022/07/16 09:59:38;;;;;;;5.40;3.95;;;;;;;29.24;68.84;99690.56;6273670;22;20007;-80
2022/07/16 10:02:04;;;;;;;4.00;3.70;;;;;;;29.33;68.74;99693.66;6273405;22;20011;-81
2022/07/16 10:04:30;;;;;;;4.65;4.30;;;;;;;29.41;68.49;99689.59;6273545;22;20011;-79
2022/07/16 10:06:57;;;;;;;4.15;3.85;;;;;;;29.47;68.05;99697.53;6273716;22;20010;-80
2022/07/16 10:09:24;;;;;;;6.35;4.00;;;;;;;29.54;66.81;99692.69;6272949;22;20400;-81
2022/07/16 10:11:52;;;;;;;5.63;3.95;;;;;;;29.54;66.61;99689.97;6246270;22;20019;-80
2022/07/16 10:14:19;;;;;;;4.45;4.03;;;;;;;29.55;66.36;99688.06;6273023;22;20420;-80
2022/07/16 10:16:45;;;;;;;4.95;4.45;;;;;;;29.58;66.04;99691.06;6274961;22;20039;-79
2022/07/16 10:19:12;;;;;;;5.95;3.70;;;;;;;29.66;66.52;99687.88;6273230;22;20708;-80
2022/07/16 10:21:39;;;;;;;5.45;3.92;;;;;;;29.68;66.30;99685.72;6273056;22;20531;-79
2022/07/16 10:24:08;;;;;;;6.85;3.60;;;;;;;29.71;66.54;99687.88;6272672;22;20049;-79
2022/07/16 10:26:35;;;;;;;4.78;3.97;;;;;;;29.74;66.58;99683.00;6273060;22;20437;-80
2022/07/16 10:29:02;;;;;;;4.95;3.50;;;;;;;29.77;66.78;99687.91;6273318;22;20007;-79
2022/07/16 10:34:41;;;;;;;3.70;3.40;;;;;;;29.86;65.72;99676.28;6273353;22;20020;-80
2022/07/16 10:37:10;;;;;;;4.07;3.78;;;;;;;29.89;66.23;99680.34;6273432;22;20428;-79
2022/07/16 10:40:06;;;;;;;4.30;3.90;;;;;;;29.93;65.84;99681.47;6273232;22;20405;-80
2022/07/16 10:42:32;;;;;;;4.25;3.95;;;;;;;29.99;64.32;99680.41;6273174;22;20446;-79
2022/07/16 10:44:58;;;;;;;6.13;3.90;;;;;;;30.02;63.73;99680.72;6273616;22;20142;-80
2022/07/16 10:47:45;;;;;;;3.72;3.42;;;;;;;30.08;63.50;99684.28;6273371;22;20034;-79
2022/07/16 10:50:21;;;;;;;5.43;3.47;;;;;;;30.12;65.04;99679.91;6280391;22;20024;-80
2022/07/16 10:52:54;;;;;;;3.72;3.38;;;;;;;30.14;64.70;99677.75;5103136;27;20476;-81
2022/07/16 10:55:31;;;;;;;4.30;3.90;;;;;;;30.10;65.03;99676.66;5081320;28;20028;-81
2022/07/16 10:57:57;;;;;;;4.93;4.13;;;;;;;30.07;65.83;99677.19;5066336;28;20064;-81
2022/07/16 11:00:23;;;;;;;4.53;3.72;;;;;;;30.10;65.65;99676.66;5081736;28;20774;-80
2022/07/16 11:02:56;;;;;;;5.32;3.85;;;;;;;30.15;66.17;99676.69;5081736;28;20040;-81
2022/07/16 11:05:30;;;;;;;5.72;3.38;;;;;;;30.21;65.03;99672.06;5064832;28;20119;-80
2022/07/16 11:08:06;;;;;;;4.68;3.33;;;;;;;30.22;64.79;99679.16;5082062;28;20120;-80
2022/07/16 11:10:32;;;;;;;4.07;3.78;;;;;;;30.32;64.55;99669.09;5080735;28;20410;-79
2022/07/16 11:12:57;;;;;;;3.65;3.35;;;;;;;30.37;64.48;99676.44;5080451;28;20063;-79
2022/07/16 11:15:23;;;;;;;8.27;5.00;;;;;;;30.40;64.27;99676.72;5079416;28;20031;-80
2022/07/16 11:17:55;;;;;;;5.40;4.35;;;;;;;30.45;63.27;99668.59;5082245;28;20029;-79
2022/07/16 11:20:34;;;;;;;5.25;4.20;;;;;;;30.46;62.99;99669.38;5081747;28;20025;-79
2022/07/16 11:23:06;;;;;;;4.20;3.80;;;;;;;30.46;62.54;99662.03;5076741;28;20386;-79
2022/07/16 11:25:32;;;;;;;5.15;3.70;;;;;;;30.48;63.03;99662.63;5080556;28;20499;-79
2022/07/16 11:28:01;;;;;;;7.32;3.80;;;;;;;30.59;62.58;99662.63;5078784;28;20036;-80
2022/07/16 11:30:27;;;;;;;6.03;4.57;;;;;;;30.62;61.15;99662.09;5082309;28;20098;-81
2022/07/16 11:32:53;;;;;;;4.60;3.95;;;;;;;30.61;61.52;99660.44;5081375;28;20036;-80
2022/07/16 11:35:18;;;;;;;4.53;4.13;;;;;;;30.61;61.35;99660.44;5063525;28;20036;-81
2022/07/16 11:37:50;;;;;;;6.03;3.95;;;;;;;30.70;61.40;99656.09;5082219;28;20082;-79
2022/07/16 11:40:16;;;;;;;5.68;3.70;;;;;;;30.73;61.17;99658.28;5052771;28;20400;-79